Time;durP1;ratioP1;P1;durP2;ratioP2;P2;SDS_P1;SDS_P2;PMS_P1;PMS_P2;Temp;Humidity;BMP_temperature;BMP_pressure;BME280_temperature;BME280_humidity;BME280_pressure;Samples;Min_cycle;Max_cycle;Signal;HPM_P1;HPM_P2
2024/02/26 00:00:46;;;;;;;6.78;3.83;;;;;;;5.98;64.49;94861.00;4920553;29;20090;-78
2024/02/26 00:03:13;;;;;;;5.22;3.63;;;;;;;5.98;64.47;94866.16;4920352;29;20052;-77
2024/02/26 00:05:43;;;;;;;5.18;3.47;;;;;;;6.02;64.42;94864.78;4920169;29;20113;-78
2024/02/26 00:08:10;;;;;;;4.97;3.13;;;;;;;6.07;63.85;94862.41;4919783;29;20052;-77
2024/02/26 00:10:38;;;;;;;3.55;2.80;;;;;;;6.10;63.41;94854.25;4920469;29;20421;-77
2024/02/26 00:13:06;;;;;;;2.97;2.47;;;;;;;6.14;63.21;94857.25;4920107;29;20086;-81
2024/02/26 00:15:35;;;;;;;5.32;3.75;;;;;;;6.18;63.80;94864.41;4920338;29;20505;-78
2024/02/26 00:18:02;;;;;;;9.70;4.60;;;;;;;6.21;64.05;94857.25;4919915;29;20082;-79
2024/02/26 00:20:30;;;;;;;6.75;4.15;;;;;;;6.22;63.80;94851.88;4919961;29;20060;-77
2024/02/26 00:22:59;;;;;;;6.20;3.47;;;;;;;6.24;63.69;94843.94;4919760;29;20576;-77
2024/02/26 00:25:27;;;;;;;6.53;3.90;;;;;;;6.24;63.18;94849.88;4919513;29;20076;-77
2024/02/26 00:27:54;;;;;;;6.72;4.15;;;;;;;6.20;63.96;94848.69;4919594;29;20138;-77
2024/02/26 00:30:22;;;;;;;7.40;3.88;;;;;;;6.16;63.48;94853.44;4919805;29;20130;-78
2024/02/26 00:32:50;;;;;;;5.35;3.72;;;;;;;6.17;63.40;94855.06;4919552;29;20123;-77
2024/02/26 00:35:20;;;;;;;7.00;4.20;;;;;;;6.16;63.19;94863.81;4919833;29;20504;-77
2024/02/26 00:37:48;;;;;;;6.40;4.25;;;;;;;6.15;63.55;94867.41;4919688;29;20056;-77
2024/02/26 00:40:17;;;;;;;8.15;5.13;;;;;;;6.15;64.37;94862.22;4919754;29;20076;-77
2024/02/26 00:42:45;;;;;;;5.32;3.92;;;;;;;6.13;63.79;94864.22;4918718;29;20080;-77
2024/02/26 00:45:13;;;;;;;8.00;4.60;;;;;;;6.10;63.85;94864.63;4919371;29;20052;-77
2024/02/26 00:47:42;;;;;;;6.55;4.68;;;;;;;6.11;64.92;94871.38;4919605;29;20424;-78
2024/02/26 00:50:10;;;;;;;7.07;4.57;;;;;;;6.17;67.08;94877.56;4919559;29;20052;-77
2024/02/26 00:52:38;;;;;;;6.07;3.90;;;;;;;6.19;65.23;94871.19;4919263;29;20052;-77
2024/02/26 00:55:07;;;;;;;5.82;3.83;;;;;;;6.18;64.59;94877.34;4918848;29;20056;-79
2024/02/26 00:57:36;;;;;;;5.85;3.97;;;;;;;6.17;64.21;94875.78;4919275;29;20135;-76
2024/02/26 01:00:04;;;;;;;6.03;4.30;;;;;;;6.15;64.35;94872.59;4920260;29;20496;-78
2024/02/26 01:02:32;;;;;;;6.72;4.40;;;;;;;6.15;64.08;94877.75;4920119;29;20078;-77
2024/02/26 01:04:59;;;;;;;5.38;3.75;;;;;;;6.16;64.01;94865.59;4920289;29;20148;-77
2024/02/26 01:07:27;;;;;;;7.88;4.85;;;;;;;6.13;63.98;94868.59;4920155;29;20060;-77
2024/02/26 01:09:55;;;;;;;6.70;4.32;;;;;;;6.09;64.19;94863.00;4920303;29;20052;-76
2024/02/26 01:12:22;;;;;;;7.00;4.35;;;;;;;6.05;64.79;94866.19;4919863;29;20048;-79
2024/02/26 01:14:51;;;;;;;6.22;4.47;;;;;;;5.99;64.72;94867.75;4920000;29;20052;-78
2024/02/26 01:17:19;;;;;;;8.77;4.68;;;;;;;5.96;64.32;94863.78;4920192;29;20063;-76
2024/02/26 01:19:47;;;;;;;7.10;4.38;;;;;;;5.92;64.28;94856.56;4920323;29;20143;-76
2024/02/26 01:22:14;;;;;;;6.85;4.45;;;;;;;5.88;64.18;94852.78;4920070;29;20062;-78
2024/02/26 01:24:42;;;;;;;6.57;4.30;;;;;;;5.88;64.91;94855.34;4920409;29;20052;-78
2024/02/26 01:27:09;;;;;;;5.18;3.72;;;;;;;5.94;64.54;94852.00;4919952;29;20142;-77
2024/02/26 01:29:37;;;;;;;7.25;4.45;;;;;;;5.98;64.69;94855.81;4920175;29;20048;-80
2024/02/26 01:32:06;;;;;;;4.18;3.47;;;;;;;6.01;63.42;94855.41;4920237;29;20048;-78
2024/02/26 01:34:36;;;;;;;9.13;4.18;;;;;;;6.03;63.26;94843.06;4919764;29;20414;-79
2024/02/26 01:37:04;;;;;;;6.03;4.53;;;;;;;6.05;63.21;94854.03;4919557;29;20051;-76
2024/02/26 01:39:32;;;;;;;5.90;4.10;;;;;;;6.06;63.12;94847.88;4919921;29;20154;-79
2024/02/26 01:41:59;;;;;;;6.18;3.97;;;;;;;6.08;63.17;94845.06;4919820;29;20267;-77
2024/02/26 01:44:28;;;;;;;6.65;5.00;;;;;;;6.11;65.09;94848.06;4919557;29;20052;-77
2024/02/26 01:46:56;;;;;;;7.03;3.92;;;;;;;6.15;63.97;94856.25;4919775;29;20056;-77
2024/02/26 01:49:25;;;;;;;6.28;4.00;;;;;;;6.14;64.18;94845.13;4919273;29;20080;-78
2024/02/26 01:51:53;;;;;;;6.43;4.50;;;;;;;6.18;64.50;94859.22;4919933;29;20504;-78
2024/02/26 01:54:20;;;;;;;5.55;4.10;;;;;;;6.21;63.49;94849.47;4919168;29;20092;-79
2024/02/26 01:56:48;;;;;;;5.35;4.07;;;;;;;6.22;64.26;94851.09;4919446;29;20489;-77
2024/02/26 01:59:16;;;;;;;6.43;4.32;;;;;;;6.24;64.11;94851.69;4920542;29;20044;-80
2024/02/26 02:01:49;;;;;;;5.97;4.00;;;;;;;6.27;67.38;94859.84;4920870;29;20134;-78
2024/02/26 02:04:17;;;;;;;6.07;3.70;;;;;;;6.30;65.58;94850.91;4920650;29;20123;-78
2024/02/26 02:06:46;;;;;;;6.50;4.10;;;;;;;6.31;66.64;94852.50;4920674;29;20062;-78
2024/02/26 02:09:14;;;;;;;5.07;3.70;;;;;;;6.29;64.83;94857.84;4921010;29;20044;-78
2024/02/26 02:11:42;;;;;;;6.15;3.78;;;;;;;6.28;66.17;94851.09;4920572;29;20151;-78
2024/02/26 02:14:10;;;;;;;11.60;3.83;;;;;;;6.27;64.49;94831.38;4920022;29;20052;-78
2024/02/26 02:16:37;;;;;;;7.13;4.32;;;;;;;6.25;64.14;94841.13;4919956;29;20079;-79
2024/02/26 02:19:05;;;;;;;3.78;3.38;;;;;;;6.25;63.60;94840.31;4920636;29;20056;-79
2024/02/26 02:21:34;;;;;;;5.25;4.10;;;;;;;6.31;67.09;94836.94;4919858;29;20051;-79
2024/02/26 02:24:01;;;;;;;5.85;4.00;;;;;;;6.38;68.73;94830.78;4919954;29;20056;-78
2024/02/26 02:26:29;;;;;;;5.38;4.03;;;;;;;6.50;70.45;94843.94;4920352;29;20418;-77
2024/02/26 02:28:57;;;;;;;5.53;3.70;;;;;;;6.58;70.68;94841.16;4920155;29;20066;-79
2024/02/26 02:31:24;;;;;;;5.45;3.92;;;;;;;6.59;69.08;94844.53;4920266;29;20095;-78
2024/02/26 02:33:52;;;;;;;6.43;4.07;;;;;;;6.58;67.94;94851.50;4919736;29;20059;-78
2024/02/26 02:36:20;;;;;;;6.30;3.97;;;;;;;6.58;66.57;94845.50;4919706;29;20052;-78
2024/02/26 02:38:53;;;;;;;4.97;3.60;;;;;;;6.52;64.17;94847.13;4920104;29;20118;-77
2024/02/26 02:41:21;;;;;;;5.60;4.15;;;;;;;6.48;65.95;94845.13;4920114;29;20063;-79
2024/02/26 02:43:49;;;;;;;5.60;3.78;;;;;;;6.42;65.84;94836.34;4919424;29;20083;-78
2024/02/26 02:46:16;;;;;;;6.32;3.92;;;;;;;6.34;65.03;94852.09;4920061;29;20052;-78
2024/02/26 02:48:44;;;;;;;6.78;3.92;;;;;;;6.22;64.52;94851.88;4920285;29;20079;-76
2024/02/26 02:51:12;;;;;;;4.95;3.88;;;;;;;6.13;64.10;94840.91;4919469;29;20090;-79
2024/02/26 02:53:40;;;;;;;5.30;3.92;;;;;;;6.06;64.47;94847.09;4919803;29;20719;-78
2024/02/26 02:56:08;;;;;;;5.70;4.03;;;;;;;6.00;64.20;94838.31;4918971;29;20131;-78
2024/02/26 02:58:36;;;;;;;4.63;3.88;;;;;;;5.95;63.93;94838.09;4919723;29;20086;-78
2024/02/26 03:01:04;;;;;;;6.43;4.30;;;;;;;5.88;64.13;94840.66;4919453;29;20311;-79
2024/02/26 03:03:31;;;;;;;6.35;4.47;;;;;;;5.82;63.88;94841.44;4919195;29;20048;-78
2024/02/26 03:05:59;;;;;;;4.18;3.65;;;;;;;5.75;64.18;94841.41;4920892;29;20060;-78
2024/02/26 03:08:27;;;;;;;6.93;4.20;;;;;;;5.71;64.29;94844.59;4922962;29;20048;-78
2024/02/26 03:10:54;;;;;;;6.20;4.60;;;;;;;5.69;64.20;94856.91;4922869;29;20059;-76
2024/02/26 03:13:23;;;;;;;5.40;4.35;;;;;;;5.66;64.30;94852.91;4922659;29;20048;-78
2024/02/26 03:15:51;;;;;;;10.85;5.40;;;;;;;5.64;64.53;94854.91;4922736;29;20059;-79
2024/02/26 03:18:19;;;;;;;7.10;4.63;;;;;;;5.65;64.45;94860.88;4923155;29;20048;-78
2024/02/26 03:20:47;;;;;;;6.43;4.45;;;;;;;5.62;64.17;94866.41;4922955;29;20045;-80
2024/02/26 03:23:16;;;;;;;7.32;4.18;;;;;;;5.57;64.28;94864.41;4922746;29;20048;-77
2024/02/26 03:25:46;;;;;;;7.80;5.35;;;;;;;5.56;64.66;94870.59;4922535;29;20091;-77
2024/02/26 03:28:13;;;;;;;8.30;5.03;;;;;;;5.57;66.38;94877.34;4922507;29;20122;-78
2024/02/26 03:30:42;;;;;;;5.07;3.92;;;;;;;5.60;65.32;94878.75;4922859;29;20634;-77
2024/02/26 03:33:10;;;;;;;6.45;4.70;;;;;;;5.61;65.36;94883.72;4922340;29;20052;-78
2024/02/26 03:35:37;;;;;;;8.75;4.90;;;;;;;5.65;66.13;94876.38;4922032;29;20432;-76
2024/02/26 03:38:05;;;;;;;6.65;4.80;;;;;;;5.65;64.93;94887.53;4922838;29;20543;-76
2024/02/26 03:40:32;;;;;;;8.75;4.78;;;;;;;5.70;67.81;94892.13;4922107;29;20060;-78
2024/02/26 03:43:00;;;;;;;6.95;4.35;;;;;;;5.71;66.12;94875.63;4922703;29;20112;-78
2024/02/26 03:45:27;;;;;;;6.38;3.83;;;;;;;5.70;65.04;94882.56;4922001;29;20052;-77
2024/02/26 03:47:57;;;;;;;6.55;4.55;;;;;;;5.67;64.95;94875.19;4922166;29;20070;-78
2024/02/26 03:50:24;;;;;;;6.55;4.80;;;;;;;5.66;64.82;94878.75;4921936;29;20047;-79
2024/02/26 03:52:52;;;;;;;7.57;4.93;;;;;;;5.66;65.04;94865.84;4921917;29;20072;-79
2024/02/26 03:55:24;;;;;;;7.32;5.13;;;;;;;5.65;64.89;94872.00;4921978;29;20138;-79
2024/02/26 03:57:52;;;;;;;7.93;5.13;;;;;;;5.63;64.48;94865.44;4922090;29;20520;-78
2024/02/26 04:00:20;;;;;;;7.72;5.22;;;;;;;5.58;64.28;94860.84;4922159;29;20515;-79
2024/02/26 04:02:50;;;;;;;7.07;4.78;;;;;;;5.60;64.09;94889.91;4921039;29;20048;-77
2024/02/26 04:05:19;;;;;;;5.30;4.15;;;;;;;5.64;63.86;94904.06;4921863;29;20052;-78
2024/02/26 04:07:46;;;;;;;6.97;5.35;;;;;;;5.69;64.32;94899.09;4921935;29;20055;-78
2024/02/26 04:10:14;;;;;;;8.13;5.68;;;;;;;5.71;65.69;94891.94;4921486;29;20109;-78
2024/02/26 04:12:43;;;;;;;7.88;5.60;;;;;;;5.75;65.61;94897.50;4921164;29;20052;-79
2024/02/26 04:15:11;;;;;;;6.95;4.78;;;;;;;5.77;65.35;94901.53;4921361;29;20060;-79
2024/02/26 04:17:39;;;;;;;6.15;4.22;;;;;;;5.79;64.74;94898.72;4921400;29;20489;-76
2024/02/26 04:20:09;;;;;;;6.88;4.80;;;;;;;5.83;64.83;94894.75;4921598;29;20513;-78
2024/02/26 04:22:38;;;;;;;6.60;4.47;;;;;;;5.83;64.03;94894.75;4921373;29;20055;-76
2024/02/26 04:25:06;;;;;;;6.05;4.13;;;;;;;5.85;63.87;94892.78;4920608;29;20052;-80
2024/02/26 04:27:34;;;;;;;5.75;4.13;;;;;;;5.87;63.66;94895.19;4921496;29;20048;-79
2024/02/26 04:30:01;;;;;;;9.23;4.40;;;;;;;5.86;63.63;94885.81;4921311;29;20044;-77
2024/02/26 04:32:29;;;;;;;5.07;3.95;;;;;;;5.88;63.63;94897.59;4921333;29;20115;-78
2024/02/26 04:34:58;;;;;;;4.75;4.13;;;;;;;5.89;63.55;94896.56;4921050;29;20100;-79
2024/02/26 04:37:30;;;;;;;5.47;4.07;;;;;;;5.93;64.98;94897.00;4921513;29;20083;-78
2024/02/26 04:40:00;;;;;;;6.60;4.75;;;;;;;5.96;64.56;94887.06;4921111;29;20052;-78
2024/02/26 04:42:28;;;;;;;6.05;4.20;;;;;;;5.97;64.07;94901.63;4920798;29;20082;-76
2024/02/26 04:44:56;;;;;;;6.35;4.03;;;;;;;5.99;63.19;94885.88;4920615;29;20059;-76
2024/02/26 04:47:23;;;;;;;7.57;4.45;;;;;;;6.01;62.82;94880.50;4920480;29;20056;-78
2024/02/26 04:49:51;;;;;;;5.40;4.07;;;;;;;6.04;62.26;94890.50;4921015;29;20044;-77
2024/02/26 04:52:20;;;;;;;5.93;4.07;;;;;;;6.06;63.82;94909.22;4920590;29;20503;-78
2024/02/26 04:54:47;;;;;;;8.73;5.15;;;;;;;6.10;63.57;94908.63;4920530;29;20512;-77
2024/02/26 04:57:18;;;;;;;6.00;4.53;;;;;;;6.12;62.84;94898.88;4920750;29;20581;-78
2024/02/26 04:59:46;;;;;;;8.48;5.47;;;;;;;6.12;62.68;94893.69;4919604;29;20056;-76
2024/02/26 05:02:14;;;;;;;9.10;5.65;;;;;;;6.11;62.96;94884.31;4920580;29;20115;-76
2024/02/26 05:04:42;;;;;;;10.55;6.32;;;;;;;6.11;63.35;94886.91;4920397;29;20086;-79
2024/02/26 05:07:09;;;;;;;9.70;5.70;;;;;;;6.16;62.98;94870.78;4920811;29;20512;-77
2024/02/26 05:09:37;;;;;;;9.98;5.35;;;;;;;6.18;62.85;94867.00;4920238;29;20445;-77
2024/02/26 05:12:05;;;;;;;8.15;5.30;;;;;;;6.22;62.50;94864.81;4920616;29;20091;-77
2024/02/26 05:14:34;;;;;;;6.07;4.47;;;;;;;6.24;62.48;94865.44;4920889;29;20059;-78
2024/02/26 05:17:02;;;;;;;8.32;5.95;;;;;;;6.25;62.40;94859.25;4920249;29;20112;-77
2024/02/26 05:19:30;;;;;;;5.70;4.22;;;;;;;6.26;62.20;94870.41;4920251;29;20100;-76
2024/02/26 05:21:57;;;;;;;8.10;5.25;;;;;;;6.28;63.06;94871.03;4920093;29;20327;-77
2024/02/26 05:24:25;;;;;;;7.55;4.57;;;;;;;6.32;62.60;94874.78;4920007;29;20052;-80
2024/02/26 05:26:54;;;;;;;7.28;5.38;;;;;;;6.35;63.33;94871.81;4920104;29;20508;-78
2024/02/26 05:29:21;;;;;;;10.20;6.28;;;;;;;6.36;62.52;94888.94;4919759;29;20135;-78
2024/02/26 05:31:50;;;;;;;10.43;5.82;;;;;;;6.33;64.91;94882.38;4919919;29;20100;-77
2024/02/26 05:34:18;;;;;;;10.43;6.60;;;;;;;6.30;63.69;94879.38;4919578;29;20073;-77
2024/02/26 05:36:46;;;;;;;8.68;6.22;;;;;;;6.26;64.03;94885.97;4919432;29;20499;-77
2024/02/26 05:39:13;;;;;;;9.60;5.95;;;;;;;6.21;63.03;94877.97;4918816;29;20079;-77
2024/02/26 05:41:46;;;;;;;6.53;4.30;;;;;;;6.14;63.66;94891.72;4919257;29;20048;-75
2024/02/26 05:44:14;;;;;;;6.90;4.55;;;;;;;6.09;63.04;94891.47;4918613;29;20067;-77
2024/02/26 05:46:42;;;;;;;5.28;4.47;;;;;;;6.02;62.76;94890.69;4918345;29;20060;-75
2024/02/26 05:49:11;;;;;;;6.38;4.40;;;;;;;5.98;62.85;94892.06;4918950;29;20147;-77
2024/02/26 05:51:39;;;;;;;8.07;4.80;;;;;;;5.98;62.94;94876.53;4919729;29;20044;-78
2024/02/26 05:54:08;;;;;;;7.75;4.78;;;;;;;6.00;63.09;94869.38;4919947;29;20409;-80
2024/02/26 05:56:35;;;;;;;8.38;4.57;;;;;;;6.02;62.85;94866.59;4919583;29;20056;-82
2024/02/26 05:59:03;;;;;;;5.38;4.60;;;;;;;6.01;62.56;94873.53;4919504;29;20497;-79
2024/02/26 06:01:31;;;;;;;6.03;4.80;;;;;;;6.07;65.02;94874.56;4920050;29;20048;-77
2024/02/26 06:03:59;;;;;;;6.97;4.90;;;;;;;6.14;65.98;94891.72;4919415;29;20063;-77
2024/02/26 06:06:28;;;;;;;7.70;5.10;;;;;;;6.22;64.44;94887.34;4919795;29;20051;-78
2024/02/26 06:08:56;;;;;;;8.82;5.63;;;;;;;6.26;65.79;94884.16;4919428;29;20197;-75
2024/02/26 06:11:23;;;;;;;7.97;5.25;;;;;;;6.30;64.99;94887.16;4919964;29;20048;-78
2024/02/26 06:13:51;;;;;;;8.65;5.28;;;;;;;6.29;63.30;94885.53;4920014;29;20045;-79
2024/02/26 06:16:19;;;;;;;9.35;5.63;;;;;;;6.30;65.79;94885.38;4919261;29;20087;-78
2024/02/26 06:18:46;;;;;;;8.00;5.75;;;;;;;6.37;66.10;94886.16;4919773;29;20420;-77
2024/02/26 06:21:14;;;;;;;9.20;5.72;;;;;;;6.43;65.29;94891.53;4920231;29;20060;-81
2024/02/26 06:23:43;;;;;;;10.38;6.35;;;;;;;6.45;63.57;94890.38;4920656;29;20518;-78
2024/02/26 06:26:10;;;;;;;9.45;6.53;;;;;;;6.47;63.10;94896.16;4919507;29;20048;-78
2024/02/26 06:28:40;;;;;;;10.50;7.00;;;;;;;6.45;64.84;94899.91;4920968;29;20048;-80
2024/02/26 06:31:08;;;;;;;14.43;7.53;;;;;;;6.42;63.74;94913.25;4916796;29;20059;-78
2024/02/26 06:33:36;;;;;;;11.50;7.10;;;;;;;6.39;63.28;94919.63;4917284;29;20472;-80
2024/02/26 06:36:04;;;;;;;12.18;7.30;;;;;;;6.38;64.03;94933.56;4917660;29;20428;-80
2024/02/26 06:38:32;;;;;;;10.25;7.45;;;;;;;6.36;65.14;94938.13;4917692;29;20056;-77
2024/02/26 06:41:03;;;;;;;12.55;8.23;;;;;;;6.36;64.57;94949.31;4920781;29;20048;-77
2024/02/26 06:43:30;;;;;;;11.35;7.63;;;;;;;6.32;63.54;94944.69;4921018;29;20060;-77
2024/02/26 06:45:58;;;;;;;9.93;6.22;;;;;;;6.26;63.48;94951.47;4921071;29;20108;-78
2024/02/26 06:48:25;;;;;;;12.27;7.25;;;;;;;6.24;63.26;94947.50;4921247;29;20120;-78
2024/02/26 06:50:53;;;;;;;9.65;6.20;;;;;;;6.25;63.77;94962.03;4921118;29;20054;-77
2024/02/26 06:53:21;;;;;;;9.68;7.10;;;;;;;6.31;64.94;94963.84;4920722;29;20142;-81
2024/02/26 06:55:50;;;;;;;12.13;8.50;;;;;;;6.35;65.26;94959.88;4920663;29;20115;-78
2024/02/26 06:58:19;;;;;;;14.93;8.73;;;;;;;6.37;65.81;94960.47;4941164;23;20060;-77
2024/02/26 07:00:46;;;;;;;10.88;8.02;;;;;;;6.38;65.43;94954.28;4917840;29;20048;-77
2024/02/26 07:03:15;;;;;;;10.73;8.23;;;;;;;6.33;65.30;94957.47;4917965;29;20055;-77
2024/02/26 07:05:44;;;;;;;10.65;6.95;;;;;;;6.31;65.20;94958.66;4918445;29;20059;-77
2024/02/26 07:08:12;;;;;;;11.52;7.28;;;;;;;6.30;64.99;94957.88;4917750;29;20048;-77
2024/02/26 07:10:40;;;;;;;10.35;6.90;;;;;;;6.29;64.49;94960.66;4918158;29;20477;-77
2024/02/26 07:13:07;;;;;;;9.95;6.85;;;;;;;6.26;64.17;94951.47;4917972;29;20052;-77
2024/02/26 07:15:36;;;;;;;10.45;7.43;;;;;;;6.24;64.33;94961.22;4917902;29;20575;-77
2024/02/26 07:18:05;;;;;;;10.00;6.20;;;;;;;6.23;64.33;94961.41;4917890;29;20088;-77
2024/02/26 07:20:33;;;;;;;10.15;6.53;;;;;;;6.25;64.68;94959.44;4918072;29;20060;-77
2024/02/26 07:23:00;;;;;;;10.15;7.35;;;;;;;6.29;64.55;94969.19;4918034;29;20480;-77
2024/02/26 07:25:28;;;;;;;9.93;6.85;;;;;;;6.38;66.96;94975.81;4917663;29;20139;-77
2024/02/26 07:27:55;;;;;;;12.68;8.05;;;;;;;6.45;67.20;94983.63;4917429;29;20527;-77
2024/02/26 07:30:24;;;;;;;11.60;7.75;;;;;;;6.45;65.18;94980.19;4917434;29;20111;-76
2024/02/26 07:32:53;;;;;;;10.30;7.35;;;;;;;6.48;68.05;94979.81;4917360;29;20052;-77
2024/02/26 07:35:21;;;;;;;11.25;7.43;;;;;;;6.54;66.45;94985.03;4917493;29;20056;-77
2024/02/26 07:37:49;;;;;;;12.15;8.02;;;;;;;6.58;65.01;94986.22;4917718;29;20587;-77
2024/02/26 07:40:17;;;;;;;14.32;9.65;;;;;;;6.56;64.36;94990.03;4917454;29;20091;-77
2024/02/26 07:42:44;;;;;;;16.00;9.57;;;;;;;6.50;64.54;94986.41;4917532;29;20107;-77
2024/02/26 07:45:12;;;;;;;18.35;11.00;;;;;;;6.49;64.27;94984.78;4917049;29;20436;-77
2024/02/26 07:47:41;;;;;;;12.13;8.32;;;;;;;6.49;63.74;94987.38;4918038;29;20052;-77
2024/02/26 07:50:11;;;;;;;10.32;6.80;;;;;;;6.49;63.37;94987.38;4917255;29;20131;-77
2024/02/26 07:52:39;;;;;;;9.88;7.53;;;;;;;6.51;63.47;94975.03;4936034;29;20052;-77
2024/02/26 07:55:08;;;;;;;12.55;7.40;;;;;;;6.55;63.58;94978.84;4940589;29;20048;-76
2024/02/26 07:57:35;;;;;;;10.03;6.43;;;;;;;6.60;62.92;94981.66;4905106;29;1024442;-77
2024/02/26 08:00:07;;;;;;;9.55;7.30;;;;;;;6.67;62.67;94973.06;4921587;29;20052;-77
2024/02/26 08:02:34;;;;;;;10.88;7.70;;;;;;;6.73;64.54;94967.09;4918627;29;20055;-77
2024/02/26 08:05:02;;;;;;;11.95;6.82;;;;;;;6.78;63.25;94972.50;4919076;29;20052;-77
2024/02/26 08:07:31;;;;;;;11.63;7.68;;;;;;;6.83;62.89;94969.31;4918837;29;20048;-77
2024/02/26 08:09:58;;;;;;;11.90;7.68;;;;;;;6.89;62.65;94969.31;4918889;29;20062;-77
2024/02/26 08:12:26;;;;;;;12.75;7.75;;;;;;;6.94;62.53;94969.53;4918321;29;20536;-77
2024/02/26 08:14:54;;;;;;;15.57;8.50;;;;;;;7.01;62.21;94970.31;4918530;29;20052;-77
2024/02/26 08:17:21;;;;;;;13.18;8.45;;;;;;;7.10;61.95;94977.91;4919135;29;20056;-77
2024/02/26 08:19:49;;;;;;;11.18;7.80;;;;;;;7.23;61.90;94978.69;4918114;29;20111;-77
2024/02/26 08:22:17;;;;;;;12.40;8.25;;;;;;;7.42;61.83;94982.25;4917895;29;20052;-77
2024/02/26 08:24:46;;;;;;;13.93;9.07;;;;;;;7.59;61.08;94987.84;4917460;29;20048;-77
2024/02/26 08:27:14;;;;;;;9.90;6.20;;;;;;;7.71;60.45;94976.84;4922344;29;20059;-77
2024/02/26 08:29:41;;;;;;;13.73;7.93;;;;;;;7.79;59.83;94980.00;4917856;29;20497;-77
2024/02/26 08:32:09;;;;;;;13.18;7.68;;;;;;;7.85;59.46;94983.59;4917650;29;20059;-77
2024/02/26 08:34:37;;;;;;;10.63;6.80;;;;;;;7.90;59.95;94978.59;4917224;29;20115;-77
2024/02/26 08:37:04;;;;;;;11.35;6.50;;;;;;;7.92;59.18;94983.56;4917554;29;20413;-77
2024/02/26 08:39:32;;;;;;;11.07;6.70;;;;;;;7.90;58.91;94988.16;4917881;29;20095;-77
2024/02/26 08:42:01;;;;;;;11.30;7.45;;;;;;;7.93;59.84;94982.56;4917285;29;20056;-76
2024/02/26 08:44:29;;;;;;;11.05;6.95;;;;;;;7.94;59.97;94984.16;4916860;29;20052;-76
2024/02/26 08:46:56;;;;;;;10.73;7.25;;;;;;;7.94;59.86;94995.34;4917166;29;20480;-76
2024/02/26 08:49:24;;;;;;;10.13;6.70;;;;;;;7.96;60.23;94985.56;4917265;29;20055;-77
2024/02/26 08:51:51;;;;;;;11.13;7.90;;;;;;;8.02;60.50;94996.91;4917193;29;20135;-77
2024/02/26 08:54:19;;;;;;;10.65;7.90;;;;;;;8.03;60.32;94998.50;4917175;29;20117;-77
2024/02/26 08:56:47;;;;;;;12.25;7.93;;;;;;;8.05;60.40;95009.50;4917157;29;20080;-76
2024/02/26 08:59:16;;;;;;;10.25;7.60;;;;;;;8.08;60.39;95008.28;4918991;29;20056;-77
2024/02/26 09:01:43;;;;;;;10.90;8.02;;;;;;;8.09;59.91;95007.28;4919604;29;20055;-77
2024/02/26 09:04:11;;;;;;;12.95;8.13;;;;;;;8.10;59.78;95007.06;4927197;29;20090;-77
2024/02/26 09:06:39;;;;;;;12.50;8.57;;;;;;;8.13;59.58;95011.84;4930127;29;20056;-77
2024/02/26 09:09:06;;;;;;;13.85;8.32;;;;;;;8.14;59.38;95016.06;4917392;29;20572;-77
2024/02/26 09:11:34;;;;;;;14.30;9.30;;;;;;;8.15;59.22;95012.44;4916986;29;20056;-77
2024/02/26 09:14:01;;;;;;;13.57;9.30;;;;;;;8.20;59.47;95017.84;4916614;29;20076;-77
2024/02/26 09:16:30;;;;;;;12.88;7.60;;;;;;;8.26;58.91;95021.41;4916693;29;20140;-77
2024/02/26 09:18:58;;;;;;;11.10;7.05;;;;;;;8.34;58.71;95020.38;4916933;29;20098;-77
2024/02/26 09:21:26;;;;;;;10.77;6.90;;;;;;;8.43;58.73;95029.56;4916484;29;20143;-77
2024/02/26 09:23:54;;;;;;;11.50;6.55;;;;;;;8.50;58.44;95030.31;4916622;29;20473;-77
2024/02/26 09:26:21;;;;;;;9.15;6.00;;;;;;;8.58;58.08;95032.69;4919407;29;20103;-78
2024/02/26 09:28:49;;;;;;;10.32;6.72;;;;;;;8.65;57.89;95027.44;4924910;29;20210;-77
2024/02/26 09:31:18;;;;;;;9.43;6.63;;;;;;;8.72;57.85;95032.63;4924437;29;20120;-77
2024/02/26 09:33:47;;;;;;;8.38;6.25;;;;;;;8.78;57.77;95034.38;4923249;29;20044;-78
2024/02/26 09:36:15;;;;;;;10.77;6.93;;;;;;;8.84;57.88;95039.56;4920361;29;20058;-77
2024/02/26 09:38:43;;;;;;;12.93;7.30;;;;;;;8.91;57.69;95042.13;4918757;29;20048;-77
2024/02/26 09:41:23;;;;;;;9.63;6.53;;;;;;;8.97;58.30;95050.91;4918769;29;20052;-77
2024/02/26 09:43:56;;;;;;;8.35;5.93;;;;;;;9.04;60.67;95055.03;4916747;29;20104;-76
2024/02/26 09:46:24;;;;;;;10.23;6.45;;;;;;;9.11;58.35;95057.59;4917236;29;20135;-77
2024/02/26 09:48:53;;;;;;;11.73;7.32;;;;;;;9.13;57.69;95044.38;4916707;29;20083;-77
2024/02/26 09:51:24;;;;;;;9.15;7.03;;;;;;;9.17;57.58;95054.16;4917797;29;20108;-77
2024/02/26 09:53:53;;;;;;;11.75;7.18;;;;;;;9.22;57.45;95056.91;4918174;29;20060;-77
2024/02/26 09:56:22;;;;;;;9.10;5.95;;;;;;;9.26;57.24;95050.28;4916526;29;20090;-77
2024/02/26 09:58:53;;;;;;;11.15;6.53;;;;;;;9.31;56.74;95054.84;4916255;29;20099;-77
2024/02/26 10:01:24;;;;;;;10.07;5.93;;;;;;;9.37;56.73;95058.41;4916436;29;20580;-77
2024/02/26 10:03:57;;;;;;;9.60;6.57;;;;;;;9.43;56.38;95066.19;4916290;29;20496;-77
2024/02/26 10:06:27;;;;;;;8.57;6.07;;;;;;;9.55;56.58;95068.88;4916726;29;20063;-77
2024/02/26 10:08:55;;;;;;;10.38;7.03;;;;;;;9.68;56.43;95067.97;4916317;29;20543;-77
2024/02/26 10:11:24;;;;;;;11.63;7.28;;;;;;;9.83;55.96;95065.03;4916218;29;20512;-77
2024/02/26 10:13:52;;;;;;;7.88;5.85;;;;;;;10.04;55.63;95072.47;4916231;29;20058;-77
2024/02/26 10:16:20;;;;;;;11.23;7.07;;;;;;;10.22;54.96;95070.88;4926729;29;20056;-77
2024/02/26 10:18:48;;;;;;;13.73;7.00;;;;;;;10.39;55.01;95073.75;4925148;29;20051;-78
2024/02/26 10:21:21;;;;;;;12.75;6.13;;;;;;;10.58;54.22;95069.31;4925114;29;20083;-77
2024/02/26 10:23:50;;;;;;;10.90;6.47;;;;;;;10.81;54.33;95074.63;4923754;29;20497;-78
2024/02/26 10:26:18;;;;;;;11.88;5.88;;;;;;;11.05;54.17;95072.91;4923188;29;20509;-78
2024/02/26 10:28:46;;;;;;;11.10;6.25;;;;;;;11.33;53.63;95072.31;4922849;29;20055;-77
2024/02/26 10:31:19;;;;;;;9.35;6.32;;;;;;;11.58;52.72;95070.53;4920948;29;20048;-78
2024/02/26 10:33:47;;;;;;;10.05;6.38;;;;;;;11.68;52.02;95070.78;4919837;29;20068;-76
2024/02/26 10:36:15;;;;;;;7.95;6.15;;;;;;;11.74;55.48;95075.09;4919169;29;20481;-77
2024/02/26 10:38:44;;;;;;;11.18;6.47;;;;;;;11.85;55.01;95076.94;4919623;29;20059;-78
2024/02/26 10:41:15;;;;;;;8.15;6.10;;;;;;;11.98;53.23;95075.13;4919397;29;20048;-77
2024/02/26 10:43:42;;;;;;;8.05;5.95;;;;;;;12.09;52.30;95072.53;4919579;29;20048;-77
2024/02/26 10:46:10;;;;;;;9.38;5.80;;;;;;;12.21;51.29;95069.91;4919244;29;20143;-77
2024/02/26 10:48:38;;;;;;;6.82;5.50;;;;;;;12.30;50.42;95068.50;4919484;29;20109;-77
2024/02/26 10:51:06;;;;;;;6.50;5.20;;;;;;;12.35;50.26;95060.78;4919063;29;20048;-77
2024/02/26 10:53:36;;;;;;;6.18;5.03;;;;;;;12.41;49.60;95063.50;4919005;29;20055;-77
2024/02/26 10:56:06;;;;;;;8.02;5.85;;;;;;;12.41;48.91;95059.06;4919403;29;20415;-76
2024/02/26 10:58:34;;;;;;;5.72;4.40;;;;;;;12.56;53.04;95063.81;4919101;29;20500;-77
2024/02/26 11:01:02;;;;;;;7.10;4.65;;;;;;;12.76;51.96;95061.56;4919194;29;20102;-78
2024/02/26 11:03:34;;;;;;;6.78;5.22;;;;;;;13.07;49.34;95064.75;4918823;29;20505;-77
2024/02/26 11:06:04;;;;;;;6.60;4.75;;;;;;;13.37;47.99;95063.72;4918918;29;20052;-77
2024/02/26 11:08:33;;;;;;;8.80;5.85;;;;;;;13.58;47.09;95063.03;4918810;29;20504;-77
2024/02/26 11:11:01;;;;;;;8.10;5.28;;;;;;;13.77;46.94;95050.50;4918861;29;20491;-78
2024/02/26 11:13:31;;;;;;;7.82;5.72;;;;;;;13.90;45.71;95049.34;4918678;29;20135;-77
2024/02/26 11:16:03;;;;;;;5.95;5.20;;;;;;;13.93;46.45;95046.25;4919003;29;20535;-77
2024/02/26 11:18:32;;;;;;;7.53;5.13;;;;;;;13.93;45.98;95046.25;4919105;29;20111;-77
2024/02/26 11:21:00;;;;;;;6.65;4.95;;;;;;;13.90;46.41;95046.72;4918974;29;20495;-77
2024/02/26 11:23:28;;;;;;;8.98;5.70;;;;;;;13.84;47.18;95049.50;4918820;29;20056;-78
2024/02/26 11:25:59;;;;;;;7.05;5.60;;;;;;;13.74;47.54;95050.16;4917931;29;20082;-77
2024/02/26 11:28:31;;;;;;;8.15;5.53;;;;;;;13.64;49.75;95050.00;4918576;29;20052;-78
2024/02/26 11:31:01;;;;;;;6.65;5.65;;;;;;;13.57;48.38;95040.47;4918719;29;20079;-78
2024/02/26 11:33:29;;;;;;;7.82;5.35;;;;;;;13.45;48.67;95042.41;4918741;29;20139;-78
2024/02/26 11:35:58;;;;;;;7.57;4.70;;;;;;;13.29;49.16;95041.34;4918245;29;20091;-77
2024/02/26 11:38:27;;;;;;;9.80;6.13;;;;;;;13.17;49.33;95044.00;4918521;29;20501;-77
2024/02/26 11:40:55;;;;;;;8.18;5.25;;;;;;;13.05;49.58;95045.88;4918608;29;20087;-77
2024/02/26 11:43:24;;;;;;;7.25;5.28;;;;;;;12.92;50.65;95044.34;4918237;29;20139;-78